Etusivu
METAR-TAF:

METAR-TAF

Lentoasemat :

Schoolcraft County Airport

Manistique, Michigan, Yhdysvallat

Leveyspiiri: 45-58-29N, Pituuspiiri: 086-10-19W, korkeus merenpinnasta: 209 m

Tämänhetkinen sää

Tämä raportti tehtiin 18 minuuttia sitten, kello 06.35 UTC
Tuuli 4 kn pohjoisesta
Lämpötila 1°C
Kosteus 93%
Ilmanpaine 1019 hPa
Näkyvyys: 16.1 km
Hajanaisia pilviä 2400 ft:n korkeudessa
Pilvistä 3100 ft:n korkeudessa

METAR: KISQ 010635Z AUTO 35004KT 10SM SCT024 OVC031 01/00 A3008 RMK AO2 T00051002

Aika: 02:53 (06:53 UTC)


TAF: puuttuu

Säähavainnot ja -ennusteet yli 4000 lentoasemalta (METAR- ja TAF-raportit).

Käytössä olevat sääasemat on merkitty karttaan keltaisilla ja punaisilla pisteillä.

Aseta hiiri pisteen päälle nähdäksesi sääaseman nimen.

Klikkaa sitten nähdäksesi säähavainnot ja -ennusteet.

Kartan vaihtaminen: klikkaa mustalla rastilla varustettuja vihreitä pisteitä, niin voit zoomata sisään; viivalla varustettua vihreää pistettä, niin voit zoomata ulos tai vihreitä nuolia, niin pääset viereisille kartoille.


METAR-TAF: